sensor_id;sensor_type;location;lat;lon;timestamp;temperature;humidity
44863;DHT22;30597;49.628;10.850;2023-08-20T00:00:29;29.00;70.70
44863;DHT22;30597;49.628;10.850;2023-08-20T00:03:12;29.10;71.00
44863;DHT22;30597;49.628;10.850;2023-08-20T00:05:38;29.00;71.00
44863;DHT22;30597;49.628;10.850;2023-08-20T00:08:04;29.10;71.20
44863;DHT22;30597;49.628;10.850;2023-08-20T00:10:30;29.00;71.40
44863;DHT22;30597;49.628;10.850;2023-08-20T00:12:56;28.90;72.00
44863;DHT22;30597;49.628;10.850;2023-08-20T00:15:21;28.90;72.20
44863;DHT22;30597;49.628;10.850;2023-08-20T00:17:52;28.90;71.70
44863;DHT22;30597;49.628;10.850;2023-08-20T00:20:18;28.90;71.90
44863;DHT22;30597;49.628;10.850;2023-08-20T00:22:44;28.90;72.00
44863;DHT22;30597;49.628;10.850;2023-08-20T00:25:13;28.90;71.90
44863;DHT22;30597;49.628;10.850;2023-08-20T00:27:40;28.90;72.00
44863;DHT22;30597;49.628;10.850;2023-08-20T00:30:06;28.90;71.90
44863;DHT22;30597;49.628;10.850;2023-08-20T00:32:32;28.90;72.20
44863;DHT22;30597;49.628;10.850;2023-08-20T00:34:58;28.90;72.60
44863;DHT22;30597;49.628;10.850;2023-08-20T00:37:23;28.90;71.70
44863;DHT22;30597;49.628;10.850;2023-08-20T00:39:49;29.00;71.90
44863;DHT22;30597;49.628;10.850;2023-08-20T00:42:15;28.90;72.10
44863;DHT22;30597;49.628;10.850;2023-08-20T00:44:41;28.90;72.00
44863;DHT22;30597;49.628;10.850;2023-08-20T00:47:10;28.90;72.30
44863;DHT22;30597;49.628;10.850;2023-08-20T00:49:36;28.90;72.10
44863;DHT22;30597;49.628;10.850;2023-08-20T00:52:03;28.90;72.30
44863;DHT22;30597;49.628;10.850;2023-08-20T00:54:29;28.90;72.20
44863;DHT22;30597;49.628;10.850;2023-08-20T00:56:57;28.90;72.40
44863;DHT22;30597;49.628;10.850;2023-08-20T00:59:24;28.90;72.60
44863;DHT22;30597;49.628;10.850;2023-08-20T01:01:51;29.00;72.80
44863;DHT22;30597;49.628;10.850;2023-08-20T01:04:16;28.90;72.80
44863;DHT22;30597;49.628;10.850;2023-08-20T01:07:02;28.90;73.10
44863;DHT22;30597;49.628;10.850;2023-08-20T01:12:13;28.90;73.70
44863;DHT22;30597;49.628;10.850;2023-08-20T01:14:39;28.90;73.80
44863;DHT22;30597;49.628;10.850;2023-08-20T01:17:04;28.80;73.70
44863;DHT22;30597;49.628;10.850;2023-08-20T01:19:30;28.90;73.80
44863;DHT22;30597;49.628;10.850;2023-08-20T01:27:43;28.80;74.40
44863;DHT22;30597;49.628;10.850;2023-08-20T01:30:15;28.80;74.60
44863;DHT22;30597;49.628;10.850;2023-08-20T01:32:42;28.80;74.40
44863;DHT22;30597;49.628;10.850;2023-08-20T01:35:12;28.80;74.70
44863;DHT22;30597;49.628;10.850;2023-08-20T01:37:40;28.90;75.30
44863;DHT22;30597;49.628;10.850;2023-08-20T01:40:07;28.80;75.30
44863;DHT22;30597;49.628;10.850;2023-08-20T01:42:40;28.80;76.00
44863;DHT22;30597;49.628;10.850;2023-08-20T01:45:06;28.80;75.90
44863;DHT22;30597;49.628;10.850;2023-08-20T01:47:33;28.80;76.20
44863;DHT22;30597;49.628;10.850;2023-08-20T01:49:58;28.80;76.80
44863;DHT22;30597;49.628;10.850;2023-08-20T01:52:25;28.90;77.00
44863;DHT22;30597;49.628;10.850;2023-08-20T01:54:50;28.80;76.60
44863;DHT22;30597;49.628;10.850;2023-08-20T01:57:16;28.80;76.50
44863;DHT22;30597;49.628;10.850;2023-08-20T01:59:42;28.80;76.50
44863;DHT22;30597;49.628;10.850;2023-08-20T02:02:08;28.90;76.20
44863;DHT22;30597;49.628;10.850;2023-08-20T02:04:33;28.80;76.10
44863;DHT22;30597;49.628;10.850;2023-08-20T02:06:59;28.80;76.00
44863;DHT22;30597;49.628;10.850;2023-08-20T02:09:25;28.80;75.70
44863;DHT22;30597;49.628;10.850;2023-08-20T02:11:51;28.80;75.60
44863;DHT22;30597;49.628;10.850;2023-08-20T02:14:16;28.80;75.70
44863;DHT22;30597;49.628;10.850;2023-08-20T02:16:42;28.90;75.70
44863;DHT22;30597;49.628;10.850;2023-08-20T02:19:08;28.80;76.00
44863;DHT22;30597;49.628;10.850;2023-08-20T02:21:34;28.90;76.10
44863;DHT22;30597;49.628;10.850;2023-08-20T02:23:59;28.90;75.80
44863;DHT22;30597;49.628;10.850;2023-08-20T02:26:25;28.80;75.90
44863;DHT22;30597;49.628;10.850;2023-08-20T02:28:50;28.80;76.20
44863;DHT22;30597;49.628;10.850;2023-08-20T02:31:16;28.80;76.10
44863;DHT22;30597;49.628;10.850;2023-08-20T02:33:41;28.80;75.90
44863;DHT22;30597;49.628;10.850;2023-08-20T02:36:07;28.70;76.40
44863;DHT22;30597;49.628;10.850;2023-08-20T02:38:32;28.70;76.50
44863;DHT22;30597;49.628;10.850;2023-08-20T02:40:58;28.80;76.70
44863;DHT22;30597;49.628;10.850;2023-08-20T02:43:24;28.70;76.50
44863;DHT22;30597;49.628;10.850;2023-08-20T02:45:49;28.70;77.00
44863;DHT22;30597;49.628;10.850;2023-08-20T02:48:15;28.80;76.70
44863;DHT22;30597;49.628;10.850;2023-08-20T02:50:41;28.70;76.90
44863;DHT22;30597;49.628;10.850;2023-08-20T02:53:06;28.70;76.60
44863;DHT22;30597;49.628;10.850;2023-08-20T02:55:33;28.70;76.90
44863;DHT22;30597;49.628;10.850;2023-08-20T02:57:58;28.70;76.80
44863;DHT22;30597;49.628;10.850;2023-08-20T03:00:24;28.70;76.70
44863;DHT22;30597;49.628;10.850;2023-08-20T03:02:50;28.70;77.00
44863;DHT22;30597;49.628;10.850;2023-08-20T03:05:15;28.70;77.00
44863;DHT22;30597;49.628;10.850;2023-08-20T03:07:41;28.70;76.90
44863;DHT22;30597;49.628;10.850;2023-08-20T03:10:06;28.70;76.80
44863;DHT22;30597;49.628;10.850;2023-08-20T03:12:32;28.70;77.50
44863;DHT22;30597;49.628;10.850;2023-08-20T03:14:59;28.70;77.20
44863;DHT22;30597;49.628;10.850;2023-08-20T03:17:25;28.70;77.70
44863;DHT22;30597;49.628;10.850;2023-08-20T03:19:55;28.70;77.50
44863;DHT22;30597;49.628;10.850;2023-08-20T03:22:21;28.80;77.50
44863;DHT22;30597;49.628;10.850;2023-08-20T03:24:47;28.70;77.60
44863;DHT22;30597;49.628;10.850;2023-08-20T03:27:13;28.70;77.10
44863;DHT22;30597;49.628;10.850;2023-08-20T03:29:38;28.70;76.80
44863;DHT22;30597;49.628;10.850;2023-08-20T03:32:04;28.80;76.70
44863;DHT22;30597;49.628;10.850;2023-08-20T03:34:30;28.70;76.90
44863;DHT22;30597;49.628;10.850;2023-08-20T03:36:56;28.70;77.20
44863;DHT22;30597;49.628;10.850;2023-08-20T03:39:22;28.70;77.10
44863;DHT22;30597;49.628;10.850;2023-08-20T03:41:49;28.60;77.10
44863;DHT22;30597;49.628;10.850;2023-08-20T03:44:15;28.60;77.10
44863;DHT22;30597;49.628;10.850;2023-08-20T03:46:40;28.60;77.10
44863;DHT22;30597;49.628;10.850;2023-08-20T03:49:06;28.70;77.20
44863;DHT22;30597;49.628;10.850;2023-08-20T03:51:31;28.60;77.20
44863;DHT22;30597;49.628;10.850;2023-08-20T03:53:57;28.70;77.40
44863;DHT22;30597;49.628;10.850;2023-08-20T03:56:22;28.60;77.20
44863;DHT22;30597;49.628;10.850;2023-08-20T03:58:48;28.60;77.10
44863;DHT22;30597;49.628;10.850;2023-08-20T04:01:13;28.70;76.90
44863;DHT22;30597;49.628;10.850;2023-08-20T04:03:39;28.60;77.30
44863;DHT22;30597;49.628;10.850;2023-08-20T04:06:05;28.60;77.10
44863;DHT22;30597;49.628;10.850;2023-08-20T04:08:30;28.70;77.30
44863;DHT22;30597;49.628;10.850;2023-08-20T04:10:56;28.60;77.50
44863;DHT22;30597;49.628;10.850;2023-08-20T04:13:21;28.70;77.40
44863;DHT22;30597;49.628;10.850;2023-08-20T04:15:47;28.60;77.40
44863;DHT22;30597;49.628;10.850;2023-08-20T04:18:12;28.60;77.60
44863;DHT22;30597;49.628;10.850;2023-08-20T04:20:38;28.60;77.40
44863;DHT22;30597;49.628;10.850;2023-08-20T04:23:04;28.60;77.40
44863;DHT22;30597;49.628;10.850;2023-08-20T04:25:29;28.60;77.40
44863;DHT22;30597;49.628;10.850;2023-08-20T04:27:55;28.60;77.30
44863;DHT22;30597;49.628;10.850;2023-08-20T04:30:20;28.60;77.20
44863;DHT22;30597;49.628;10.850;2023-08-20T04:32:46;28.60;77.10
44863;DHT22;30597;49.628;10.850;2023-08-20T04:35:11;28.50;77.10
44863;DHT22;30597;49.628;10.850;2023-08-20T04:37:37;28.50;77.00
44863;DHT22;30597;49.628;10.850;2023-08-20T04:40:03;28.60;77.00
44863;DHT22;30597;49.628;10.850;2023-08-20T04:42:31;28.50;77.10
44863;DHT22;30597;49.628;10.850;2023-08-20T04:44:56;28.60;77.20
44863;DHT22;30597;49.628;10.850;2023-08-20T04:47:22;28.50;76.90
44863;DHT22;30597;49.628;10.850;2023-08-20T04:49:47;28.60;77.20
44863;DHT22;30597;49.628;10.850;2023-08-20T04:52:13;28.60;77.10
44863;DHT22;30597;49.628;10.850;2023-08-20T04:54:38;28.50;77.50
44863;DHT22;30597;49.628;10.850;2023-08-20T04:57:04;28.60;77.30
44863;DHT22;30597;49.628;10.850;2023-08-20T04:59:29;28.60;77.10
44863;DHT22;30597;49.628;10.850;2023-08-20T05:01:55;28.60;77.10
44863;DHT22;30597;49.628;10.850;2023-08-20T05:04:20;28.50;77.10
44863;DHT22;30597;49.628;10.850;2023-08-20T05:06:46;28.50;77.10
44863;DHT22;30597;49.628;10.850;2023-08-20T05:09:12;28.50;77.10
44863;DHT22;30597;49.628;10.850;2023-08-20T05:11:37;28.50;77.30
44863;DHT22;30597;49.628;10.850;2023-08-20T05:14:03;28.60;78.10
44863;DHT22;30597;49.628;10.850;2023-08-20T05:16:29;28.50;77.40
44863;DHT22;30597;49.628;10.850;2023-08-20T05:18:54;28.60;77.30
44863;DHT22;30597;49.628;10.850;2023-08-20T05:21:20;28.50;77.20
44863;DHT22;30597;49.628;10.850;2023-08-20T05:23:45;28.50;77.10
44863;DHT22;30597;49.628;10.850;2023-08-20T05:26:11;28.60;77.30
44863;DHT22;30597;49.628;10.850;2023-08-20T05:28:36;28.50;77.50
44863;DHT22;30597;49.628;10.850;2023-08-20T05:31:02;28.50;77.20
44863;DHT22;30597;49.628;10.850;2023-08-20T05:33:27;28.50;77.20
44863;DHT22;30597;49.628;10.850;2023-08-20T05:35:53;28.50;77.50
44863;DHT22;30597;49.628;10.850;2023-08-20T05:38:18;28.50;77.40
44863;DHT22;30597;49.628;10.850;2023-08-20T05:40:44;28.50;77.50
44863;DHT22;30597;49.628;10.850;2023-08-20T05:43:10;28.50;77.70
44863;DHT22;30597;49.628;10.850;2023-08-20T05:45:35;28.50;78.00
44863;DHT22;30597;49.628;10.850;2023-08-20T05:48:01;28.50;78.10
44863;DHT22;30597;49.628;10.850;2023-08-20T05:50:26;28.50;78.10
44863;DHT22;30597;49.628;10.850;2023-08-20T05:52:52;28.50;78.00
44863;DHT22;30597;49.628;10.850;2023-08-20T05:55:18;28.50;77.90
44863;DHT22;30597;49.628;10.850;2023-08-20T05:57:44;28.50;77.80
44863;DHT22;30597;49.628;10.850;2023-08-20T06:00:11;28.50;77.90
44863;DHT22;30597;49.628;10.850;2023-08-20T06:02:37;28.50;78.00
44863;DHT22;30597;49.628;10.850;2023-08-20T06:05:03;28.50;78.00
44863;DHT22;30597;49.628;10.850;2023-08-20T06:07:31;28.50;77.50
44863;DHT22;30597;49.628;10.850;2023-08-20T06:09:57;28.60;77.10
44863;DHT22;30597;49.628;10.850;2023-08-20T06:12:23;28.50;76.60
44863;DHT22;30597;49.628;10.850;2023-08-20T06:14:49;28.60;76.70
44863;DHT22;30597;49.628;10.850;2023-08-20T06:17:15;28.50;75.90
44863;DHT22;30597;49.628;10.850;2023-08-20T06:19:41;28.60;76.60
44863;DHT22;30597;49.628;10.850;2023-08-20T06:22:07;28.50;76.60
44863;DHT22;30597;49.628;10.850;2023-08-20T06:24:32;28.60;77.10
44863;DHT22;30597;49.628;10.850;2023-08-20T06:26:58;28.60;77.30
44863;DHT22;30597;49.628;10.850;2023-08-20T06:29:23;28.60;77.60
44863;DHT22;30597;49.628;10.850;2023-08-20T06:31:49;28.60;77.60
44863;DHT22;30597;49.628;10.850;2023-08-20T06:34:16;28.60;77.80
44863;DHT22;30597;49.628;10.850;2023-08-20T06:36:41;28.70;78.00
44863;DHT22;30597;49.628;10.850;2023-08-20T06:39:07;28.70;77.90
44863;DHT22;30597;49.628;10.850;2023-08-20T06:41:33;28.80;77.60
44863;DHT22;30597;49.628;10.850;2023-08-20T06:43:59;28.80;77.20
44863;DHT22;30597;49.628;10.850;2023-08-20T06:46:25;28.80;77.40
44863;DHT22;30597;49.628;10.850;2023-08-20T06:48:50;28.90;76.50
44863;DHT22;30597;49.628;10.850;2023-08-20T06:51:19;28.80;76.00
44863;DHT22;30597;49.628;10.850;2023-08-20T06:53:45;28.70;75.90
44863;DHT22;30597;49.628;10.850;2023-08-20T06:56:11;28.70;75.70
44863;DHT22;30597;49.628;10.850;2023-08-20T06:58:39;28.70;75.60
44863;DHT22;30597;49.628;10.850;2023-08-20T07:01:04;28.70;75.70
44863;DHT22;30597;49.628;10.850;2023-08-20T07:03:43;28.70;75.20
44863;DHT22;30597;49.628;10.850;2023-08-20T07:06:10;28.70;75.20
44863;DHT22;30597;49.628;10.850;2023-08-20T07:08:36;28.80;75.20
44863;DHT22;30597;49.628;10.850;2023-08-20T07:11:04;28.80;75.00
44863;DHT22;30597;49.628;10.850;2023-08-20T07:13:29;28.80;74.50
44863;DHT22;30597;49.628;10.850;2023-08-20T07:15:55;28.80;74.40
44863;DHT22;30597;49.628;10.850;2023-08-20T07:18:20;28.80;74.20
44863;DHT22;30597;49.628;10.850;2023-08-20T07:20:46;28.70;73.90
44863;DHT22;30597;49.628;10.850;2023-08-20T07:23:11;28.80;73.90
44863;DHT22;30597;49.628;10.850;2023-08-20T07:25:39;28.80;73.80
44863;DHT22;30597;49.628;10.850;2023-08-20T07:28:05;28.80;73.70
44863;DHT22;30597;49.628;10.850;2023-08-20T07:30:31;28.80;73.50
44863;DHT22;30597;49.628;10.850;2023-08-20T07:32:57;28.80;73.30
44863;DHT22;30597;49.628;10.850;2023-08-20T07:35:23;28.90;73.20
44863;DHT22;30597;49.628;10.850;2023-08-20T07:37:49;28.80;72.90
44863;DHT22;30597;49.628;10.850;2023-08-20T07:40:14;28.90;72.80
44863;DHT22;30597;49.628;10.850;2023-08-20T07:42:40;28.90;72.70
44863;DHT22;30597;49.628;10.850;2023-08-20T07:45:06;28.90;72.50
44863;DHT22;30597;49.628;10.850;2023-08-20T07:47:36;28.90;72.50
44863;DHT22;30597;49.628;10.850;2023-08-20T07:50:02;28.90;72.50
44863;DHT22;30597;49.628;10.850;2023-08-20T07:52:28;28.90;72.30
44863;DHT22;30597;49.628;10.850;2023-08-20T07:54:53;28.90;72.10
44863;DHT22;30597;49.628;10.850;2023-08-20T07:57:19;28.90;71.90
44863;DHT22;30597;49.628;10.850;2023-08-20T07:59:44;28.90;71.80
44863;DHT22;30597;49.628;10.850;2023-08-20T08:02:10;29.00;71.80
44863;DHT22;30597;49.628;10.850;2023-08-20T08:04:36;28.90;71.90
44863;DHT22;30597;49.628;10.850;2023-08-20T08:07:02;28.90;71.70
44863;DHT22;30597;49.628;10.850;2023-08-20T08:09:31;28.90;71.80
44863;DHT22;30597;49.628;10.850;2023-08-20T08:11:58;29.00;71.70
44863;DHT22;30597;49.628;10.850;2023-08-20T08:14:25;28.90;71.50
44863;DHT22;30597;49.628;10.850;2023-08-20T08:16:51;29.00;71.20
44863;DHT22;30597;49.628;10.850;2023-08-20T08:19:17;29.00;71.10
44863;DHT22;30597;49.628;10.850;2023-08-20T08:21:43;29.00;71.20
44863;DHT22;30597;49.628;10.850;2023-08-20T08:24:12;29.10;71.30
44863;DHT22;30597;49.628;10.850;2023-08-20T08:26:39;29.00;71.10
44863;DHT22;30597;49.628;10.850;2023-08-20T08:29:05;29.00;71.20
44863;DHT22;30597;49.628;10.850;2023-08-20T08:31:32;29.00;71.10
44863;DHT22;30597;49.628;10.850;2023-08-20T08:33:57;29.00;71.20
44863;DHT22;30597;49.628;10.850;2023-08-20T08:36:23;29.00;70.90
44863;DHT22;30597;49.628;10.850;2023-08-20T08:38:52;29.00;71.00
44863;DHT22;30597;49.628;10.850;2023-08-20T08:41:21;29.00;71.00
44863;DHT22;30597;49.628;10.850;2023-08-20T08:43:49;29.00;71.00
44863;DHT22;30597;49.628;10.850;2023-08-20T08:46:15;29.00;70.80
44863;DHT22;30597;49.628;10.850;2023-08-20T08:48:43;29.00;70.80
44863;DHT22;30597;49.628;10.850;2023-08-20T08:51:09;29.20;71.00
44863;DHT22;30597;49.628;10.850;2023-08-20T08:53:35;29.10;70.70
44863;DHT22;30597;49.628;10.850;2023-08-20T08:56:01;29.00;70.90
44863;DHT22;30597;49.628;10.850;2023-08-20T08:58:28;29.00;71.20
44863;DHT22;30597;49.628;10.850;2023-08-20T09:00:53;29.00;71.50
44863;DHT22;30597;49.628;10.850;2023-08-20T09:03:19;29.10;72.10
44863;DHT22;30597;49.628;10.850;2023-08-20T09:05:49;29.00;71.90
44863;DHT22;30597;49.628;10.850;2023-08-20T09:08:28;29.10;71.80
44863;DHT22;30597;49.628;10.850;2023-08-20T09:10:56;29.10;71.60
44863;DHT22;30597;49.628;10.850;2023-08-20T09:13:36;29.10;71.50
44863;DHT22;30597;49.628;10.850;2023-08-20T09:16:10;29.10;71.30
44863;DHT22;30597;49.628;10.850;2023-08-20T09:18:40;29.10;71.40
44863;DHT22;30597;49.628;10.850;2023-08-20T09:21:07;29.20;71.20
44863;DHT22;30597;49.628;10.850;2023-08-20T09:23:33;29.20;71.30
44863;DHT22;30597;49.628;10.850;2023-08-20T09:26:02;29.10;71.80
44863;DHT22;30597;49.628;10.850;2023-08-20T09:28:28;29.10;71.10
44863;DHT22;30597;49.628;10.850;2023-08-20T09:30:58;29.10;70.80
44863;DHT22;30597;49.628;10.850;2023-08-20T09:33:26;29.20;71.00
44863;DHT22;30597;49.628;10.850;2023-08-20T09:35:53;29.10;70.80
44863;DHT22;30597;49.628;10.850;2023-08-20T09:38:20;29.20;70.90
44863;DHT22;30597;49.628;10.850;2023-08-20T09:40:49;29.10;70.80
44863;DHT22;30597;49.628;10.850;2023-08-20T09:43:16;29.10;70.80
44863;DHT22;30597;49.628;10.850;2023-08-20T09:45:42;29.10;70.50
44863;DHT22;30597;49.628;10.850;2023-08-20T09:48:09;29.10;70.60
44863;DHT22;30597;49.628;10.850;2023-08-20T09:50:36;29.10;70.10
44863;DHT22;30597;49.628;10.850;2023-08-20T09:53:10;29.10;70.20
44863;DHT22;30597;49.628;10.850;2023-08-20T09:55:39;29.10;70.30
44863;DHT22;30597;49.628;10.850;2023-08-20T09:58:06;29.10;70.10
44863;DHT22;30597;49.628;10.850;2023-08-20T10:00:32;29.10;70.10
44863;DHT22;30597;49.628;10.850;2023-08-20T10:02:58;29.10;70.00
44863;DHT22;30597;49.628;10.850;2023-08-20T10:05:25;29.10;70.20
44863;DHT22;30597;49.628;10.850;2023-08-20T10:07:51;29.10;69.90
44863;DHT22;30597;49.628;10.850;2023-08-20T10:10:18;29.10;70.30
44863;DHT22;30597;49.628;10.850;2023-08-20T10:12:43;29.10;70.50
44863;DHT22;30597;49.628;10.850;2023-08-20T10:15:12;29.00;71.00
44863;DHT22;30597;49.628;10.850;2023-08-20T10:17:41;29.00;71.10
44863;DHT22;30597;49.628;10.850;2023-08-20T10:20:08;29.00;71.50
44863;DHT22;30597;49.628;10.850;2023-08-20T10:22:39;29.10;71.50
44863;DHT22;30597;49.628;10.850;2023-08-20T10:25:07;29.10;71.60
44863;DHT22;30597;49.628;10.850;2023-08-20T10:27:35;29.10;71.90
44863;DHT22;30597;49.628;10.850;2023-08-20T10:30:01;29.10;72.10
44863;DHT22;30597;49.628;10.850;2023-08-20T10:32:48;29.20;71.90
44863;DHT22;30597;49.628;10.850;2023-08-20T10:35:26;29.20;71.70
44863;DHT22;30597;49.628;10.850;2023-08-20T10:43:35;29.20;72.20
44863;DHT22;30597;49.628;10.850;2023-08-20T10:46:07;29.20;71.40
44863;DHT22;30597;49.628;10.850;2023-08-20T10:48:36;29.20;71.30
44863;DHT22;30597;49.628;10.850;2023-08-20T10:51:14;29.20;71.30
44863;DHT22;30597;49.628;10.850;2023-08-20T10:53:42;29.20;71.30
44863;DHT22;30597;49.628;10.850;2023-08-20T10:56:16;29.20;71.20
44863;DHT22;30597;49.628;10.850;2023-08-20T10:58:46;29.20;71.10
44863;DHT22;30597;49.628;10.850;2023-08-20T11:01:20;29.20;71.10
44863;DHT22;30597;49.628;10.850;2023-08-20T11:03:47;29.10;71.00
44863;DHT22;30597;49.628;10.850;2023-08-20T11:06:14;29.10;70.90
44863;DHT22;30597;49.628;10.850;2023-08-20T11:08:41;29.20;70.80
44863;DHT22;30597;49.628;10.850;2023-08-20T11:11:07;29.10;70.70
44863;DHT22;30597;49.628;10.850;2023-08-20T11:13:34;29.10;70.60
44863;DHT22;30597;49.628;10.850;2023-08-20T11:16:02;29.20;70.70
44863;DHT22;30597;49.628;10.850;2023-08-20T11:18:27;29.30;70.70
44863;DHT22;30597;49.628;10.850;2023-08-20T11:20:54;29.10;70.40
44863;DHT22;30597;49.628;10.850;2023-08-20T11:23:21;29.10;70.40
44863;DHT22;30597;49.628;10.850;2023-08-20T11:25:47;29.10;70.30
44863;DHT22;30597;49.628;10.850;2023-08-20T11:28:12;29.20;70.30
44863;DHT22;30597;49.628;10.850;2023-08-20T11:30:38;29.10;70.30
44863;DHT22;30597;49.628;10.850;2023-08-20T11:33:04;29.10;70.10
44863;DHT22;30597;49.628;10.850;2023-08-20T11:35:31;29.10;70.00
44863;DHT22;30597;49.628;10.850;2023-08-20T11:37:58;29.10;70.00
44863;DHT22;30597;49.628;10.850;2023-08-20T11:40:24;29.10;70.00
44863;DHT22;30597;49.628;10.850;2023-08-20T11:42:50;29.10;69.80
44863;DHT22;30597;49.628;10.850;2023-08-20T11:45:16;29.20;69.80
44863;DHT22;30597;49.628;10.850;2023-08-20T11:47:42;29.10;69.70
44863;DHT22;30597;49.628;10.850;2023-08-20T11:50:08;29.20;69.70
44863;DHT22;30597;49.628;10.850;2023-08-20T11:52:36;29.10;69.80
44863;DHT22;30597;49.628;10.850;2023-08-20T11:55:02;29.20;69.80
44863;DHT22;30597;49.628;10.850;2023-08-20T11:57:29;29.10;70.50
44863;DHT22;30597;49.628;10.850;2023-08-20T11:59:55;29.30;69.80
44863;DHT22;30597;49.628;10.850;2023-08-20T12:02:27;29.10;69.50
44863;DHT22;30597;49.628;10.850;2023-08-20T12:04:56;29.10;69.40
44863;DHT22;30597;49.628;10.850;2023-08-20T12:07:25;29.20;69.90
44863;DHT22;30597;49.628;10.850;2023-08-20T12:09:53;29.10;70.20
44863;DHT22;30597;49.628;10.850;2023-08-20T12:12:19;29.10;70.60
44863;DHT22;30597;49.628;10.850;2023-08-20T12:14:48;29.00;70.70
44863;DHT22;30597;49.628;10.850;2023-08-20T12:17:20;29.10;71.00
44863;DHT22;30597;49.628;10.850;2023-08-20T12:19:46;29.10;71.30
44863;DHT22;30597;49.628;10.850;2023-08-20T12:22:12;29.10;70.90
44863;DHT22;30597;49.628;10.850;2023-08-20T12:24:38;29.10;70.90
44863;DHT22;30597;49.628;10.850;2023-08-20T12:27:04;29.10;70.90
44863;DHT22;30597;49.628;10.850;2023-08-20T12:29:29;29.10;70.60
44863;DHT22;30597;49.628;10.850;2023-08-20T12:31:55;29.20;70.50
44863;DHT22;30597;49.628;10.850;2023-08-20T12:34:21;29.20;70.40
44863;DHT22;30597;49.628;10.850;2023-08-20T12:36:48;29.20;70.30
44863;DHT22;30597;49.628;10.850;2023-08-20T12:39:14;29.20;70.30
44863;DHT22;30597;49.628;10.850;2023-08-20T12:41:39;29.30;69.90
44863;DHT22;30597;49.628;10.850;2023-08-20T12:44:05;29.30;69.90
44863;DHT22;30597;49.628;10.850;2023-08-20T12:46:31;29.30;69.80
44863;DHT22;30597;49.628;10.850;2023-08-20T12:48:56;29.20;69.60
44863;DHT22;30597;49.628;10.850;2023-08-20T12:51:22;29.20;69.50
44863;DHT22;30597;49.628;10.850;2023-08-20T12:53:48;29.30;69.50
44863;DHT22;30597;49.628;10.850;2023-08-20T12:56:14;29.30;69.30
44863;DHT22;30597;49.628;10.850;2023-08-20T12:58:41;29.40;69.20
44863;DHT22;30597;49.628;10.850;2023-08-20T13:01:06;29.30;69.10
44863;DHT22;30597;49.628;10.850;2023-08-20T13:03:33;29.30;69.00
44863;DHT22;30597;49.628;10.850;2023-08-20T13:05:58;29.30;68.80
44863;DHT22;30597;49.628;10.850;2023-08-20T13:08:25;29.30;68.80
44863;DHT22;30597;49.628;10.850;2023-08-20T13:10:54;29.40;68.80
44863;DHT22;30597;49.628;10.850;2023-08-20T13:13:21;29.40;68.70
44863;DHT22;30597;49.628;10.850;2023-08-20T13:15:47;29.40;68.70
44863;DHT22;30597;49.628;10.850;2023-08-20T13:18:13;29.40;68.60
44863;DHT22;30597;49.628;10.850;2023-08-20T13:20:39;29.40;68.30
44863;DHT22;30597;49.628;10.850;2023-08-20T13:23:05;29.40;68.50
44863;DHT22;30597;49.628;10.850;2023-08-20T13:25:30;29.50;68.30
44863;DHT22;30597;49.628;10.850;2023-08-20T13:27:56;29.40;68.50
44863;DHT22;30597;49.628;10.850;2023-08-20T13:30:22;29.40;68.70
44863;DHT22;30597;49.628;10.850;2023-08-20T13:32:49;29.40;69.00
44863;DHT22;30597;49.628;10.850;2023-08-20T13:35:14;29.40;69.20
44863;DHT22;30597;49.628;10.850;2023-08-20T13:37:40;29.40;69.00
44863;DHT22;30597;49.628;10.850;2023-08-20T13:40:06;29.50;69.00
44863;DHT22;30597;49.628;10.850;2023-08-20T13:42:34;29.40;69.00
44863;DHT22;30597;49.628;10.850;2023-08-20T13:45:00;29.40;68.70
44863;DHT22;30597;49.628;10.850;2023-08-20T13:47:25;29.40;68.80
44863;DHT22;30597;49.628;10.850;2023-08-20T13:49:51;29.40;68.60
44863;DHT22;30597;49.628;10.850;2023-08-20T13:52:16;29.40;68.50
44863;DHT22;30597;49.628;10.850;2023-08-20T13:54:42;29.50;68.50
44863;DHT22;30597;49.628;10.850;2023-08-20T13:57:08;29.40;68.50
44863;DHT22;30597;49.628;10.850;2023-08-20T13:59:33;29.40;69.20
44863;DHT22;30597;49.628;10.850;2023-08-20T14:01:59;29.50;68.40
44863;DHT22;30597;49.628;10.850;2023-08-20T14:04:25;29.50;69.30
44863;DHT22;30597;49.628;10.850;2023-08-20T14:06:50;29.50;69.30
44863;DHT22;30597;49.628;10.850;2023-08-20T14:09:16;29.50;69.70
44863;DHT22;30597;49.628;10.850;2023-08-20T14:11:45;29.60;70.40
44863;DHT22;30597;49.628;10.850;2023-08-20T14:14:11;29.60;70.50
44863;DHT22;30597;49.628;10.850;2023-08-20T14:16:36;29.70;70.80
44863;DHT22;30597;49.628;10.850;2023-08-20T14:19:02;29.70;70.90
44863;DHT22;30597;49.628;10.850;2023-08-20T14:21:28;29.70;71.20
44863;DHT22;30597;49.628;10.850;2023-08-20T14:23:53;29.70;71.30
44863;DHT22;30597;49.628;10.850;2023-08-20T14:26:19;29.80;71.50
44863;DHT22;30597;49.628;10.850;2023-08-20T14:28:45;29.70;71.20
44863;DHT22;30597;49.628;10.850;2023-08-20T14:31:10;29.70;71.00
44863;DHT22;30597;49.628;10.850;2023-08-20T14:33:36;29.70;70.90
44863;DHT22;30597;49.628;10.850;2023-08-20T14:36:02;29.70;71.10
44863;DHT22;30597;49.628;10.850;2023-08-20T14:38:31;29.80;71.40
44863;DHT22;30597;49.628;10.850;2023-08-20T14:41:03;29.80;71.30
44863;DHT22;30597;49.628;10.850;2023-08-20T14:43:29;29.80;71.50
44863;DHT22;30597;49.628;10.850;2023-08-20T14:45:55;29.80;71.80
44863;DHT22;30597;49.628;10.850;2023-08-20T14:48:22;29.80;71.80
44863;DHT22;30597;49.628;10.850;2023-08-20T14:50:48;29.90;72.30
44863;DHT22;30597;49.628;10.850;2023-08-20T14:53:14;29.80;72.10
44863;DHT22;30597;49.628;10.850;2023-08-20T14:55:39;30.00;72.30
44863;DHT22;30597;49.628;10.850;2023-08-20T14:58:05;29.80;72.20
44863;DHT22;30597;49.628;10.850;2023-08-20T15:00:34;29.90;72.00
44863;DHT22;30597;49.628;10.850;2023-08-20T15:03:00;29.90;71.50
44863;DHT22;30597;49.628;10.850;2023-08-20T15:05:27;29.90;71.60
44863;DHT22;30597;49.628;10.850;2023-08-20T15:07:52;30.00;71.60
44863;DHT22;30597;49.628;10.850;2023-08-20T15:10:18;29.90;71.50
44863;DHT22;30597;49.628;10.850;2023-08-20T15:12:44;29.80;71.00
44863;DHT22;30597;49.628;10.850;2023-08-20T15:15:10;30.00;71.10
44863;DHT22;30597;49.628;10.850;2023-08-20T15:17:36;29.90;71.00
44863;DHT22;30597;49.628;10.850;2023-08-20T15:20:03;29.90;71.10
44863;DHT22;30597;49.628;10.850;2023-08-20T15:22:34;29.90;70.80
44863;DHT22;30597;49.628;10.850;2023-08-20T15:25:03;29.90;70.30